createdAt,value
2019-03-16T00:01:06.610Z,81.00
2019-03-16T00:07:32.430Z,80.90
2019-03-16T00:09:59.042Z,80.90
2019-03-16T00:12:36.638Z,80.60
2019-03-16T00:15:16.517Z,80.30
2019-03-16T00:17:50.910Z,80.40
2019-03-16T00:23:46.863Z,80.40
2019-03-16T00:30:10.229Z,80.10
2019-03-16T00:32:45.498Z,79.80
2019-03-16T00:35:20.488Z,79.90
2019-03-16T00:38:00.042Z,79.90
2019-03-16T00:40:35.516Z,79.70
2019-03-16T00:46:52.491Z,79.70
2019-03-16T00:49:27.962Z,79.70
2019-03-16T00:52:04.542Z,80.00
2019-03-16T00:54:41.540Z,79.90
2019-03-16T00:57:15.550Z,79.90
2019-03-16T00:59:55.059Z,80.30
2019-03-16T01:02:32.721Z,80.20
2019-03-16T01:05:07.178Z,80.10
2019-03-16T01:07:49.524Z,80.20
2019-03-16T01:10:24.206Z,80.10
2019-03-16T01:13:03.952Z,80.20
2019-03-16T01:15:41.029Z,80.20
2019-03-16T01:18:17.094Z,80.00
2019-03-16T01:20:52.560Z,80.10
2019-03-16T01:23:31.053Z,79.70
2019-03-16T01:26:07.921Z,80.20
2019-03-16T01:28:49.100Z,80.20
2019-03-16T01:31:30.625Z,80.20
2019-03-16T01:34:06.132Z,80.00
2019-03-16T01:36:41.983Z,80.00
2019-03-16T01:39:18.580Z,79.90
2019-03-16T01:41:57.241Z,80.00
2019-03-16T01:44:30.978Z,80.00
2019-03-16T01:47:11.740Z,80.00
2019-03-16T01:49:49.663Z,79.90
2019-03-16T01:52:25.086Z,79.90
2019-03-16T01:55:02.993Z,80.00
2019-03-16T01:57:41.562Z,80.00
2019-03-16T02:00:26.753Z,80.10
2019-03-16T02:03:14.748Z,80.10
2019-03-16T02:05:47.563Z,79.90
2019-03-16T02:08:23.139Z,79.80
2019-03-16T02:11:04.723Z,79.70
2019-03-16T02:13:38.573Z,79.60
2019-03-16T02:16:12.574Z,79.70
2019-03-16T02:18:47.985Z,79.60
2019-03-16T02:24:40.036Z,79.70
2019-03-16T02:27:18.593Z,79.40
2019-03-16T02:33:22.072Z,79.40
2019-03-16T02:36:01.202Z,79.50
2019-03-16T02:38:38.081Z,79.50
2019-03-16T02:44:41.200Z,79.90
2019-03-16T02:47:16.018Z,80.10
2019-03-16T02:49:55.348Z,80.60
2019-03-16T02:52:31.204Z,79.90
2019-03-16T02:55:07.476Z,79.60
2019-03-16T02:57:44.138Z,80.20
2019-03-16T03:00:21.226Z,79.30
2019-03-16T03:03:03.028Z,79.80
2019-03-16T03:05:48.080Z,80.20
2019-03-16T03:08:31.927Z,80.20
2019-03-16T03:11:09.001Z,79.90
2019-03-16T03:13:45.591Z,79.60
2019-03-16T03:16:22.138Z,79.60
2019-03-16T03:19:01.834Z,80.00
2019-03-16T03:21:49.215Z,79.80
2019-03-16T03:24:30.379Z,79.40
2019-03-16T03:27:10.133Z,79.60
2019-03-16T03:29:47.216Z,79.40
2019-03-16T03:32:25.614Z,79.30
2019-03-16T03:35:09.182Z,79.10
2019-03-16T03:37:46.036Z,79.00
2019-03-16T03:40:25.633Z,78.90
2019-03-16T03:42:59.628Z,79.30
2019-03-16T03:45:37.069Z,79.50
2019-03-16T03:48:13.957Z,79.10
2019-03-16T03:50:54.754Z,79.10
2019-03-16T03:53:32.615Z,79.30
2019-03-16T03:56:15.244Z,79.00
2019-03-16T03:58:54.607Z,79.50
2019-03-16T04:04:58.623Z,79.40
2019-03-16T04:07:32.623Z,79.60
2019-03-16T04:13:48.101Z,79.50
2019-03-16T04:20:05.149Z,80.10
2019-03-16T04:22:40.179Z,80.10
2019-03-16T04:25:29.754Z,80.20
2019-03-16T04:28:04.628Z,80.50
2019-03-16T04:30:40.427Z,80.50
2019-03-16T04:37:00.945Z,80.40
2019-03-16T04:39:41.512Z,80.40
2019-03-16T04:42:18.194Z,80.50
2019-03-16T04:44:58.334Z,80.80
2019-03-16T04:47:31.645Z,80.60
2019-03-16T04:50:07.635Z,80.70
2019-03-16T04:52:44.093Z,80.70
2019-03-16T04:55:20.310Z,80.60
2019-03-16T04:57:56.161Z,80.40
2019-03-16T05:00:32.256Z,80.30
2019-03-16T05:03:11.744Z,80.30
2019-03-16T05:05:53.999Z,80.40
2019-03-16T05:08:27.369Z,80.80
2019-03-16T05:11:02.186Z,80.60
2019-03-16T05:13:39.062Z,80.80
2019-03-16T05:16:13.481Z,80.70
2019-03-16T05:18:49.129Z,80.90
2019-03-16T05:21:25.185Z,80.80
2019-03-16T05:24:02.889Z,81.00
2019-03-16T05:26:36.073Z,81.00
2019-03-16T05:29:15.212Z,81.10
2019-03-16T05:31:51.465Z,81.00
2019-03-16T05:34:31.316Z,80.80
2019-03-16T05:37:07.105Z,80.80
2019-03-16T05:39:43.322Z,81.00
2019-03-16T05:42:18.361Z,81.00
2019-03-16T05:44:53.638Z,81.40
2019-03-16T05:47:28.219Z,81.10
2019-03-16T05:50:04.079Z,81.10
2019-03-16T05:52:42.178Z,81.00
2019-03-16T05:55:17.210Z,80.80
2019-03-16T05:57:51.665Z,80.60
2019-03-16T06:00:26.893Z,80.40
2019-03-16T06:03:06.654Z,80.50
2019-03-16T06:05:43.079Z,80.60
2019-03-16T06:08:19.136Z,80.60
2019-03-16T06:10:56.217Z,80.70
2019-03-16T06:13:37.629Z,80.90
2019-03-16T06:16:16.536Z,80.80
2019-03-16T06:18:50.816Z,80.80
2019-03-16T06:21:30.776Z,80.50
2019-03-16T06:24:01.657Z,80.50
2019-03-16T06:26:35.662Z,80.50
2019-03-16T06:29:28.077Z,80.80
2019-03-16T06:32:05.655Z,80.60
2019-03-16T06:34:41.216Z,80.40
2019-03-16T06:37:17.288Z,80.40
2019-03-16T06:39:52.305Z,80.40
2019-03-16T06:42:28.709Z,80.20
2019-03-16T06:45:06.708Z,80.40
2019-03-16T06:47:45.395Z,80.30
2019-03-16T06:50:20.228Z,80.20
2019-03-16T06:52:54.762Z,80.40
2019-03-16T06:55:30.370Z,80.20
2019-03-16T06:58:09.736Z,80.10
2019-03-16T07:00:44.731Z,79.80
2019-03-16T07:03:22.888Z,79.50
2019-03-16T07:06:01.279Z,79.80
2019-03-16T07:08:44.231Z,80.00
2019-03-16T07:14:48.227Z,80.20
2019-03-16T07:17:24.490Z,80.40
2019-03-16T07:23:28.244Z,80.20
2019-03-16T07:29:30.746Z,79.90
2019-03-16T07:32:06.154Z,79.00
2019-03-16T07:34:43.718Z,78.90
2019-03-16T07:37:22.161Z,78.90
2019-03-16T07:40:00.741Z,78.40
2019-03-16T07:42:37.142Z,77.60
2019-03-16T07:45:18.769Z,77.70
2019-03-16T07:47:54.174Z,77.70
2019-03-16T07:50:29.208Z,77.80
2019-03-16T07:53:04.239Z,77.50
2019-03-16T07:55:42.504Z,77.00
2019-03-16T07:58:40.216Z,76.80
2019-03-16T08:01:14.775Z,76.80
2019-03-16T08:03:52.435Z,77.00
2019-03-16T08:06:27.743Z,77.20
2019-03-16T08:09:05.218Z,77.00
2019-03-16T08:11:41.231Z,77.00
2019-03-16T08:14:19.761Z,77.10
2019-03-16T08:20:36.570Z,76.40
2019-03-16T08:23:13.242Z,76.90
2019-03-16T08:25:50.333Z,76.90
2019-03-16T08:28:25.791Z,76.80
2019-03-16T08:31:01.046Z,76.60
2019-03-16T08:33:36.444Z,76.90
2019-03-16T08:39:29.518Z,76.60
2019-03-16T08:45:47.994Z,75.40
2019-03-16T08:48:28.247Z,76.00
2019-03-16T08:51:06.657Z,76.30
2019-03-16T08:53:45.342Z,75.80
2019-03-16T08:56:21.640Z,75.70
2019-03-16T08:58:56.468Z,75.00
2019-03-16T09:01:32.528Z,75.00
2019-03-16T09:04:08.036Z,74.60
2019-03-16T09:06:52.729Z,74.50
2019-03-16T09:09:23.566Z,74.20
2019-03-16T09:11:59.626Z,74.40
2019-03-16T09:14:39.046Z,74.10
2019-03-16T09:17:13.582Z,74.00
2019-03-16T09:19:50.664Z,73.70
2019-03-16T09:22:34.105Z,73.60
2019-03-16T09:25:08.512Z,73.30
2019-03-16T09:27:46.567Z,73.20
2019-03-16T09:30:23.600Z,73.20
2019-03-16T09:33:04.624Z,73.10
2019-03-16T09:35:39.128Z,72.80
2019-03-16T09:38:18.150Z,73.00
2019-03-16T09:40:55.814Z,73.30
2019-03-16T09:43:34.948Z,72.60
2019-03-16T09:46:22.678Z,72.80
2019-03-16T09:49:07.950Z,72.70
2019-03-16T09:51:50.773Z,73.00
2019-03-16T09:54:27.650Z,72.70
2019-03-16T09:57:02.717Z,72.60
2019-03-16T09:59:37.708Z,72.80
2019-03-16T10:02:14.792Z,72.50
2019-03-16T10:04:50.857Z,72.60
2019-03-16T10:07:28.752Z,73.30
2019-03-16T10:10:05.012Z,72.70
2019-03-16T10:12:42.255Z,72.40
2019-03-16T10:15:17.440Z,72.40
2019-03-16T10:17:53.798Z,72.50
2019-03-16T10:20:31.289Z,73.10
2019-03-16T10:23:11.859Z,72.70
2019-03-16T10:25:46.905Z,72.20
2019-03-16T10:28:23.969Z,72.80
2019-03-16T10:31:01.055Z,72.40
2019-03-16T10:33:35.889Z,72.20
2019-03-16T10:36:12.960Z,72.40
2019-03-16T10:38:49.221Z,71.90
2019-03-16T10:41:24.664Z,71.80
2019-03-16T10:44:03.453Z,71.60
2019-03-16T10:46:44.979Z,71.70
2019-03-16T10:49:23.725Z,72.30
2019-03-16T10:51:59.134Z,71.60
2019-03-16T10:54:34.174Z,71.70
2019-03-16T10:57:12.962Z,71.10
2019-03-16T10:59:46.283Z,71.50
2019-03-16T11:02:21.932Z,71.60
2019-03-16T11:04:58.781Z,71.30
2019-03-16T11:07:35.456Z,71.50
2019-03-16T11:10:10.001Z,71.50
2019-03-16T11:12:48.926Z,71.50
2019-03-16T11:15:24.163Z,71.40
2019-03-16T11:18:03.099Z,71.20
2019-03-16T11:20:38.121Z,71.60
2019-03-16T11:23:14.182Z,70.80
2019-03-16T11:29:21.184Z,70.30
2019-03-16T11:32:14.722Z,70.30
2019-03-16T11:34:48.043Z,69.90
2019-03-16T11:37:23.729Z,70.30
2019-03-16T11:39:59.143Z,70.10
2019-03-16T11:42:35.192Z,69.90
2019-03-16T11:45:16.845Z,69.60
2019-03-16T11:51:22.144Z,70.60
2019-03-16T11:53:58.405Z,69.70
2019-03-16T11:56:37.951Z,68.90
2019-03-16T11:59:21.657Z,68.70
2019-03-16T12:01:49.242Z,68.70
2019-03-16T12:04:24.726Z,68.60
2019-03-16T12:07:04.730Z,68.60
2019-03-16T12:09:39.729Z,68.50
2019-03-16T12:12:16.130Z,68.90
2019-03-16T12:14:54.596Z,68.70
2019-03-16T12:17:30.301Z,69.00
2019-03-16T12:20:13.521Z,68.50
2019-03-16T12:22:52.239Z,67.70
2019-03-16T12:25:28.825Z,67.60
2019-03-16T12:28:06.611Z,68.30
2019-03-16T12:30:43.279Z,68.50
2019-03-16T12:33:19.952Z,68.30
2019-03-16T12:36:09.534Z,67.70
2019-03-16T12:38:52.677Z,67.10
2019-03-16T12:41:30.254Z,67.10
2019-03-16T12:44:07.421Z,66.90
2019-03-16T12:46:44.757Z,66.90
2019-03-16T12:49:21.077Z,66.80
2019-03-16T12:55:00.383Z,66.60
2019-03-16T13:01:03.629Z,66.90
2019-03-16T13:03:39.189Z,67.60
2019-03-16T13:06:13.657Z,67.10
2019-03-16T13:08:49.255Z,67.10
2019-03-16T13:11:32.078Z,66.20
2019-03-16T13:14:08.672Z,66.80
2019-03-16T13:16:50.824Z,66.60
2019-03-16T13:22:57.244Z,66.60
2019-03-16T13:28:47.640Z,65.40
2019-03-16T13:34:59.159Z,65.50
2019-03-16T13:37:34.215Z,65.30
2019-03-16T13:40:09.324Z,65.40
2019-03-16T13:46:21.049Z,65.60
2019-03-16T13:48:59.098Z,65.40
2019-03-16T13:51:36.547Z,65.40
2019-03-16T13:54:12.786Z,65.60
2019-03-16T13:56:52.738Z,65.80
2019-03-16T13:59:30.814Z,65.60
2019-03-16T14:02:09.767Z,65.20
2019-03-16T14:04:50.368Z,65.20
2019-03-16T14:07:27.831Z,64.70
2019-03-16T14:10:04.904Z,65.30
2019-03-16T14:12:40.756Z,65.10
2019-03-16T14:15:17.847Z,65.20
2019-03-16T14:17:53.894Z,65.20
2019-03-16T14:20:29.950Z,65.00
2019-03-16T14:23:09.344Z,64.60
2019-03-16T14:25:45.966Z,65.10
2019-03-16T14:28:26.346Z,65.50
2019-03-16T14:31:05.348Z,64.80
2019-03-16T14:33:41.921Z,65.10
2019-03-16T14:42:50.982Z,63.90
2019-03-16T14:45:27.246Z,63.30
2019-03-16T14:48:02.475Z,62.80
2019-03-16T14:50:38.755Z,62.90
2019-03-16T14:53:15.345Z,63.20
2019-03-16T14:55:49.838Z,62.80
2019-03-16T14:58:25.891Z,62.70
2019-03-16T15:01:01.951Z,62.90
2019-03-16T15:03:38.008Z,62.90
2019-03-16T15:06:12.838Z,62.80
2019-03-16T15:08:51.764Z,62.10
2019-03-16T15:11:31.921Z,62.50
2019-03-16T15:14:07.351Z,62.50
2019-03-16T15:16:44.852Z,62.40
2019-03-16T15:19:21.355Z,62.40
2019-03-16T15:25:24.843Z,62.30
2019-03-16T15:37:47.610Z,62.90
2019-03-16T15:44:07.345Z,63.70
2019-03-16T15:46:43.812Z,63.60
2019-03-16T15:52:50.850Z,62.40
2019-03-16T15:58:58.438Z,61.50
2019-03-16T16:05:00.497Z,62.30
2019-03-16T16:07:38.310Z,63.30
2019-03-16T16:16:43.087Z,63.40
2019-03-16T16:19:21.598Z,63.10
2019-03-16T16:25:29.419Z,63.60
2019-03-16T16:28:05.075Z,64.10
2019-03-16T16:30:39.523Z,64.70
2019-03-16T16:33:16.975Z,64.50
2019-03-16T16:35:56.064Z,64.70
2019-03-16T16:38:38.922Z,65.20
2019-03-16T16:41:21.012Z,66.40
2019-03-16T16:43:55.515Z,67.10
2019-03-16T16:46:33.510Z,67.20
2019-03-16T16:49:09.705Z,66.80
2019-03-16T16:51:44.124Z,67.20
2019-03-16T16:54:20.797Z,66.40
2019-03-16T17:00:27.394Z,68.40
2019-03-16T17:03:10.417Z,68.70
2019-03-16T17:06:09.110Z,69.00
2019-03-16T17:11:58.689Z,69.70
2019-03-16T17:14:39.056Z,70.30
2019-03-16T17:17:14.526Z,70.40
2019-03-16T17:19:52.804Z,69.90
2019-03-16T17:22:29.270Z,70.20
2019-03-16T17:25:07.582Z,68.20
2019-03-16T17:31:18.375Z,69.70
2019-03-16T17:33:53.617Z,69.50
2019-03-16T17:36:30.587Z,69.40
2019-03-16T17:42:36.264Z,70.20
2019-03-16T17:45:15.403Z,70.40
2019-03-16T17:51:36.113Z,70.20
2019-03-16T17:57:54.689Z,71.20
2019-03-16T18:04:15.055Z,71.40
2019-03-16T18:06:52.700Z,71.20
2019-03-16T18:09:27.934Z,70.80
2019-03-16T18:12:15.085Z,71.10
2019-03-16T18:14:56.439Z,71.30
2019-03-16T18:17:32.693Z,71.00
2019-03-16T18:20:11.825Z,71.20
2019-03-16T18:22:49.928Z,70.60
2019-03-16T18:25:30.910Z,70.20
2019-03-16T18:28:09.623Z,70.80
2019-03-16T18:30:49.057Z,70.60
2019-03-16T18:33:25.625Z,70.70
2019-03-16T18:36:11.565Z,70.80
2019-03-16T18:38:46.555Z,71.20
2019-03-16T18:41:24.864Z,71.60
2019-03-16T18:44:01.938Z,71.90
2019-03-16T18:46:39.053Z,72.20
2019-03-16T18:49:13.646Z,72.60
2019-03-16T18:51:50.726Z,72.80
2019-03-16T18:54:25.059Z,72.70
2019-03-16T18:57:01.612Z,73.00
2019-03-16T18:59:43.423Z,73.30
2019-03-16T19:02:20.934Z,73.30
2019-03-16T19:04:57.364Z,72.70
2019-03-16T19:07:35.263Z,72.50
2019-03-16T19:10:22.792Z,72.30
2019-03-16T19:12:57.841Z,73.70
2019-03-16T19:15:34.700Z,74.80
2019-03-16T19:18:13.063Z,75.40
2019-03-16T19:20:49.683Z,76.30
2019-03-16T19:23:25.536Z,76.80
2019-03-16T19:29:41.549Z,77.10
2019-03-16T19:32:18.059Z,77.20
2019-03-16T19:34:52.639Z,77.00
2019-03-16T19:37:27.085Z,77.10
2019-03-16T19:43:33.074Z,77.30
2019-03-16T19:46:06.067Z,77.20
2019-03-16T19:48:41.088Z,77.40
2019-03-16T19:54:45.601Z,77.60
2019-03-16T19:57:21.073Z,78.00
2019-03-16T19:59:55.083Z,77.90
2019-03-16T20:02:30.503Z,77.90
2019-03-16T20:05:05.937Z,77.90
2019-03-16T20:07:40.767Z,77.80
2019-03-16T20:10:17.675Z,77.60
2019-03-16T20:12:58.413Z,77.40
2019-03-16T20:15:43.743Z,77.40
2019-03-16T20:18:20.071Z,77.40
2019-03-16T20:20:55.799Z,77.20
2019-03-16T20:23:31.076Z,77.00
2019-03-16T20:26:10.579Z,77.10
2019-03-16T20:28:46.070Z,78.10
2019-03-16T20:31:25.080Z,79.70
2019-03-16T20:34:02.647Z,80.90
2019-03-16T20:36:39.172Z,81.30
2019-03-16T20:39:15.080Z,81.40
2019-03-16T20:41:51.019Z,81.90
2019-03-16T20:44:26.079Z,81.90
2019-03-16T20:47:10.013Z,82.00
2019-03-16T20:49:43.492Z,82.20
2019-03-16T20:52:19.084Z,82.10
2019-03-16T20:54:54.789Z,82.20
2019-03-16T20:57:29.617Z,82.40
2019-03-16T21:00:04.857Z,82.40
2019-03-16T21:02:42.549Z,82.30
2019-03-16T21:05:17.078Z,82.50
2019-03-16T21:07:55.418Z,82.70
2019-03-16T21:16:54.075Z,82.70
2019-03-16T21:19:29.081Z,82.60
2019-03-16T21:22:05.083Z,82.50
2019-03-16T21:24:40.650Z,82.40
2019-03-16T21:33:12.076Z,81.70
2019-03-16T21:35:53.409Z,81.80
2019-03-16T21:42:12.289Z,81.80
2019-03-16T21:44:50.599Z,81.10
2019-03-16T21:47:28.709Z,81.10
2019-03-16T21:50:05.582Z,81.00
2019-03-16T21:56:10.537Z,80.80
2019-03-16T21:58:45.571Z,80.90
2019-03-16T22:01:19.092Z,81.10
2019-03-16T22:06:59.085Z,81.10
2019-03-16T22:13:04.909Z,81.20
2019-03-16T22:19:08.090Z,80.90
2019-03-16T22:21:42.090Z,80.60
2019-03-16T22:24:16.655Z,80.30
2019-03-16T22:26:52.515Z,80.00
2019-03-16T22:29:28.973Z,79.50
2019-03-16T22:32:05.093Z,79.30
2019-03-16T22:34:40.679Z,79.00
2019-03-16T22:37:17.762Z,78.80
2019-03-16T22:39:53.098Z,78.70
2019-03-16T22:42:36.634Z,78.80
2019-03-16T22:45:13.098Z,79.20
2019-03-16T22:47:51.618Z,79.60
2019-03-16T22:50:26.650Z,80.00
2019-03-16T22:53:03.334Z,80.20
2019-03-16T22:55:39.097Z,80.30
2019-03-16T22:58:18.516Z,80.40
2019-03-16T23:00:55.094Z,80.70
2019-03-16T23:03:31.098Z,80.90
2019-03-16T23:06:08.525Z,81.20
2019-03-16T23:09:02.208Z,81.90
2019-03-16T23:11:37.642Z,81.90
2019-03-16T23:14:21.068Z,82.00
2019-03-16T23:17:01.259Z,82.10
2019-03-16T23:19:35.106Z,82.30
2019-03-16T23:22:16.416Z,82.30
2019-03-16T23:24:51.109Z,82.30
2019-03-16T23:27:25.676Z,82.00
2019-03-16T23:30:01.718Z,81.60
2019-03-16T23:32:40.115Z,81.20
2019-03-16T23:35:15.126Z,80.70
2019-03-16T23:37:51.945Z,80.10
2019-03-16T23:40:27.583Z,79.20
2019-03-16T23:43:08.412Z,78.60
2019-03-16T23:45:46.129Z,78.00
2019-03-16T23:48:20.122Z,77.90
2019-03-16T23:50:55.126Z,77.60
2019-03-16T23:53:32.991Z,77.00
2019-03-16T23:56:08.844Z,77.10
2019-03-16T23:58:43.059Z,76.90
